createdAt,value
2018-08-12T00:00:26.060Z,0.00
2018-08-12T00:01:12.061Z,0.00
2018-08-12T00:02:11.425Z,0.00
2018-08-12T00:03:12.061Z,0.00
2018-08-12T00:04:26.560Z,0.00
2018-08-12T00:05:12.561Z,0.00
2018-08-12T00:06:12.560Z,0.00
2018-08-12T00:07:12.560Z,0.00
2018-08-12T00:09:50.851Z,0.00
2018-08-12T00:11:05.854Z,0.00
2018-08-12T00:11:44.849Z,0.00
2018-08-12T00:12:44.849Z,0.00
2018-08-12T00:14:07.782Z,0.00
2018-08-12T00:15:06.371Z,0.00
2018-08-12T00:15:44.720Z,0.00
2018-08-12T00:17:06.349Z,0.00
2018-08-12T00:17:46.849Z,0.00
2018-08-12T00:18:45.849Z,0.00
2018-08-12T00:19:47.305Z,0.00
2018-08-12T00:20:45.852Z,0.00
2018-08-12T00:24:48.332Z,0.00
2018-08-12T00:25:51.027Z,0.00
2018-08-12T00:27:09.480Z,0.00
2018-08-12T00:29:21.225Z,0.00
2018-08-12T00:30:21.233Z,0.00
2018-08-12T00:31:21.233Z,0.00
2018-08-12T00:32:21.233Z,0.00
2018-08-12T00:33:21.732Z,0.00
2018-08-12T00:34:41.933Z,0.00
2018-08-12T00:35:21.732Z,0.00
2018-08-12T00:36:21.732Z,0.00
2018-08-12T00:37:21.732Z,0.00
2018-08-12T00:38:22.235Z,0.00
2018-08-12T00:39:22.232Z,0.00
2018-08-12T00:40:22.243Z,0.00
2018-08-12T00:41:22.229Z,0.00
2018-08-12T00:42:22.732Z,0.00
2018-08-12T00:43:22.737Z,0.00
2018-08-12T00:44:22.732Z,0.00
2018-08-12T00:45:22.732Z,0.00
2018-08-12T00:46:22.360Z,0.00
2018-08-12T00:47:23.232Z,0.00
2018-08-12T00:48:43.561Z,0.00
2018-08-12T00:49:23.229Z,0.00
2018-08-12T00:50:23.239Z,0.00
2018-08-12T00:51:24.666Z,0.00
2018-08-12T00:52:23.787Z,0.00
2018-08-12T00:53:23.731Z,0.00
2018-08-12T00:54:23.208Z,0.00
2018-08-12T00:55:24.231Z,0.00
2018-08-12T00:56:38.229Z,0.00
2018-08-12T00:57:44.583Z,0.00
2018-08-12T00:58:44.663Z,0.00
2018-08-12T00:59:47.736Z,0.00
2018-08-12T01:00:24.742Z,0.00
2018-08-12T01:01:24.731Z,0.00
2018-08-12T01:02:24.731Z,0.00
2018-08-12T01:03:24.225Z,0.00
2018-08-12T01:04:31.223Z,0.00
2018-08-12T01:05:39.232Z,0.00
2018-08-12T01:06:25.232Z,0.00
2018-08-12T01:07:31.231Z,0.00
2018-08-12T01:08:48.169Z,0.00
2018-08-12T01:09:48.733Z,0.00
2018-08-12T01:10:25.739Z,0.00
2018-08-12T01:11:25.741Z,0.00
2018-08-12T01:12:25.735Z,0.00
2018-08-12T01:13:26.230Z,0.00
2018-08-12T01:14:26.238Z,0.00
2018-08-12T01:15:26.230Z,0.00
2018-08-12T01:16:26.231Z,0.00
2018-08-12T01:17:26.731Z,0.00
2018-08-12T01:18:25.965Z,0.00
2018-08-12T01:19:26.730Z,0.00
2018-08-12T01:20:26.727Z,0.00
2018-08-12T01:21:27.235Z,0.00
2018-08-12T01:22:27.230Z,0.00
2018-08-12T01:23:27.230Z,0.00
2018-08-12T01:24:27.230Z,0.00
2018-08-12T01:25:27.733Z,0.00
2018-08-12T01:26:27.730Z,0.00
2018-08-12T01:27:27.729Z,0.00
2018-08-12T01:28:29.189Z,0.00
2018-08-12T01:29:27.286Z,0.00
2018-08-12T01:30:34.236Z,0.00
2018-08-12T01:31:48.464Z,0.00
2018-08-12T01:32:28.229Z,0.00
2018-08-12T01:33:28.230Z,0.00
2018-08-12T01:34:30.191Z,0.00
2018-08-12T01:35:30.184Z,0.00
2018-08-12T01:38:00.208Z,0.00
2018-08-12T01:38:59.566Z,0.00
2018-08-12T01:40:00.215Z,0.00
2018-08-12T01:41:23.716Z,0.00
2018-08-12T01:41:59.960Z,0.00
2018-08-12T01:43:21.715Z,0.00
2018-08-12T01:44:00.715Z,0.00
2018-08-12T01:45:22.215Z,0.00
2018-08-12T01:46:22.211Z,0.00
2018-08-12T01:47:23.188Z,0.00
2018-08-12T01:48:01.221Z,0.00
2018-08-12T01:49:00.809Z,0.00
2018-08-12T01:50:00.905Z,0.00
2018-08-12T01:51:01.004Z,0.00
2018-08-12T01:52:01.768Z,0.00
2018-08-12T01:53:01.714Z,0.00
2018-08-12T01:54:02.214Z,0.00
2018-08-12T01:55:02.215Z,0.00
2018-08-12T01:56:02.215Z,0.00
2018-08-12T01:57:02.212Z,0.00
2018-08-12T01:58:02.714Z,0.00
2018-08-12T01:59:01.944Z,0.00
2018-08-12T02:00:25.717Z,0.00
2018-08-12T02:01:02.715Z,0.00
2018-08-12T02:02:03.248Z,0.00
2018-08-12T02:03:03.214Z,0.00
2018-08-12T02:04:03.213Z,0.00
2018-08-12T02:05:03.237Z,0.00
2018-08-12T02:06:24.732Z,0.00
2018-08-12T02:08:35.073Z,0.00
2018-08-12T02:09:56.081Z,0.00
2018-08-12T02:10:34.572Z,0.00
2018-08-12T02:11:56.588Z,0.00
2018-08-12T02:12:34.802Z,0.00
2018-08-12T02:13:35.580Z,0.00
2018-08-12T02:14:35.580Z,0.00
2018-08-12T02:15:36.080Z,0.00
2018-08-12T02:16:39.516Z,0.00
2018-08-12T02:17:36.080Z,0.00
2018-08-12T02:18:36.080Z,0.00
2018-08-12T02:19:36.580Z,0.00
2018-08-12T02:21:03.579Z,0.00
2018-08-12T02:21:36.585Z,0.00
2018-08-12T02:24:29.190Z,0.00
2018-08-12T02:25:08.195Z,0.00
2018-08-12T02:26:10.199Z,0.00
2018-08-12T02:27:22.697Z,0.00
2018-08-12T02:28:08.696Z,0.00
2018-08-12T02:29:09.694Z,0.00
2018-08-12T02:30:08.701Z,0.00
2018-08-12T02:31:09.198Z,0.00
2018-08-12T02:34:07.572Z,0.00
2018-08-12T02:34:40.578Z,0.00
2018-08-12T02:35:40.577Z,0.00
2018-08-12T02:36:41.077Z,0.00
2018-08-12T02:39:12.454Z,0.00
2018-08-12T02:40:12.462Z,0.00
2018-08-12T02:41:12.460Z,0.00
2018-08-12T02:42:12.962Z,0.00
2018-08-12T02:43:12.184Z,0.00
2018-08-12T02:44:13.021Z,0.00
2018-08-12T02:45:12.961Z,0.00
2018-08-12T02:46:12.968Z,0.00
2018-08-12T02:47:13.462Z,0.00
2018-08-12T02:48:13.461Z,0.00
2018-08-12T02:49:13.502Z,0.00
2018-08-12T02:50:13.966Z,0.00
2018-08-12T02:51:13.063Z,0.00
2018-08-12T02:52:13.966Z,0.00
2018-08-12T02:53:13.960Z,0.00
2018-08-12T02:54:13.962Z,0.00
2018-08-12T02:55:14.470Z,0.00
2018-08-12T02:56:14.461Z,0.00
2018-08-12T02:57:14.460Z,0.00
2018-08-12T02:58:14.460Z,0.00
2018-08-12T02:59:14.960Z,0.00
2018-08-12T03:00:14.892Z,0.00
2018-08-12T03:01:14.959Z,0.00
2018-08-12T03:02:14.961Z,0.00
2018-08-12T03:03:15.461Z,0.00
2018-08-12T03:04:15.461Z,0.00
2018-08-12T03:05:15.460Z,0.00
2018-08-12T03:06:16.430Z,0.00
2018-08-12T03:07:36.960Z,0.00
2018-08-12T03:08:15.959Z,0.00
2018-08-12T03:09:15.307Z,0.00
2018-08-12T03:10:15.960Z,0.00
2018-08-12T03:11:16.463Z,0.00
2018-08-12T03:12:37.459Z,0.00
2018-08-12T03:13:16.459Z,0.00
2018-08-12T03:14:16.460Z,0.00
2018-08-12T03:15:16.969Z,0.00
2018-08-12T03:16:16.959Z,0.00
2018-08-12T03:17:16.306Z,0.00
2018-08-12T03:18:16.959Z,0.00
2018-08-12T03:19:17.459Z,0.00
2018-08-12T03:20:17.459Z,0.00
2018-08-12T03:21:17.456Z,0.00
2018-08-12T03:22:17.479Z,0.00
2018-08-12T03:23:17.960Z,0.00
2018-08-12T03:24:17.959Z,0.00
2018-08-12T03:26:49.451Z,0.00
2018-08-12T03:27:49.455Z,0.00
2018-08-12T03:28:49.454Z,0.00
2018-08-12T03:29:49.054Z,0.00
2018-08-12T03:30:49.141Z,0.00
2018-08-12T03:31:55.956Z,0.00
2018-08-12T03:32:49.961Z,0.00
2018-08-12T03:33:49.964Z,0.00
2018-08-12T03:34:49.561Z,0.00
2018-08-12T03:36:11.455Z,0.00
2018-08-12T03:36:50.460Z,0.00
2018-08-12T03:37:50.483Z,0.00
2018-08-12T03:38:50.077Z,0.00
2018-08-12T03:39:50.176Z,0.00
2018-08-12T03:41:04.960Z,0.00
2018-08-12T03:41:50.954Z,0.00
2018-08-12T03:43:11.954Z,0.00
2018-08-12T03:43:53.453Z,0.00
2018-08-12T03:45:12.454Z,0.00
2018-08-12T03:45:50.805Z,0.00
2018-08-12T03:47:11.875Z,0.00
2018-08-12T03:47:51.954Z,0.00
2018-08-12T03:48:51.982Z,0.00
2018-08-12T03:49:51.176Z,0.00
2018-08-12T03:50:51.954Z,0.00
2018-08-12T03:51:51.955Z,0.00
2018-08-12T03:53:14.452Z,0.00
2018-08-12T03:53:52.523Z,0.00
2018-08-12T03:54:51.754Z,0.00
2018-08-12T03:55:52.456Z,0.00
2018-08-12T03:56:51.927Z,0.00
2018-08-12T03:57:52.954Z,0.00
2018-08-12T03:58:52.175Z,0.00
2018-08-12T03:59:53.952Z,0.00
2018-08-12T04:00:52.956Z,0.00
2018-08-12T04:01:53.454Z,0.00
2018-08-12T04:02:53.456Z,0.00
2018-08-12T04:03:53.491Z,5.63
2018-08-12T04:04:52.965Z,5.63
2018-08-12T04:05:53.953Z,5.63
2018-08-12T04:07:14.953Z,5.63
2018-08-12T04:07:53.953Z,5.63
2018-08-12T04:08:53.952Z,5.63
2018-08-12T04:09:54.461Z,5.63
2018-08-12T04:11:15.455Z,5.63
2018-08-12T04:11:54.453Z,5.63
2018-08-12T04:13:15.453Z,5.63
2018-08-12T04:13:54.054Z,11.25
2018-08-12T04:14:54.956Z,11.25
2018-08-12T04:15:54.953Z,11.25
2018-08-12T04:16:54.952Z,11.25
2018-08-12T04:18:17.407Z,11.25
2018-08-12T04:18:56.415Z,11.25
2018-08-12T04:19:55.455Z,11.25
2018-08-12T04:20:55.464Z,16.88
2018-08-12T04:21:55.051Z,16.88
2018-08-12T04:22:58.445Z,16.88
2018-08-12T04:24:09.952Z,16.88
2018-08-12T04:24:55.958Z,16.88
2018-08-12T04:26:23.450Z,22.50
2018-08-12T04:28:29.322Z,22.50
2018-08-12T04:29:28.799Z,22.50
2018-08-12T04:30:27.829Z,28.13
2018-08-12T04:31:27.424Z,28.13
2018-08-12T04:32:28.328Z,28.13
2018-08-12T04:33:28.328Z,28.13
2018-08-12T04:34:28.328Z,33.75
2018-08-12T04:35:28.834Z,33.75
2018-08-12T04:36:28.831Z,33.75
2018-08-12T04:37:28.829Z,33.75
2018-08-12T04:38:28.309Z,33.75
2018-08-12T04:39:29.328Z,33.75
2018-08-12T04:40:36.326Z,39.38
2018-08-12T04:41:29.328Z,39.38
2018-08-12T04:42:29.328Z,39.38
2018-08-12T04:43:49.904Z,39.38
2018-08-12T04:44:29.824Z,39.38
2018-08-12T04:45:43.829Z,39.38
2018-08-12T04:46:29.834Z,39.38
2018-08-12T04:47:31.831Z,45.00
2018-08-12T04:48:36.327Z,50.63
2018-08-12T04:49:50.528Z,50.63
2018-08-12T04:50:30.329Z,50.63
2018-08-12T04:51:30.370Z,50.63
2018-08-12T04:52:29.798Z,50.63
2018-08-12T04:53:44.827Z,50.63
2018-08-12T04:54:51.027Z,50.63
2018-08-12T04:55:51.109Z,50.63
2018-08-12T04:56:57.827Z,45.00
2018-08-12T04:57:30.826Z,45.00
2018-08-12T05:00:24.568Z,50.63
2018-08-12T05:01:16.570Z,50.63
2018-08-12T05:02:23.567Z,50.63
2018-08-12T05:03:09.142Z,45.00
2018-08-12T05:04:24.066Z,45.00
2018-08-12T05:05:03.081Z,45.00
2018-08-12T05:06:02.539Z,45.00
2018-08-12T05:07:24.564Z,45.00
2018-08-12T05:08:17.569Z,45.00
2018-08-12T05:09:03.569Z,45.00
2018-08-12T05:10:03.569Z,45.00
2018-08-12T05:11:05.067Z,45.00
2018-08-12T05:12:04.078Z,45.00
2018-08-12T05:13:04.079Z,45.00
2018-08-12T05:14:03.551Z,45.00
2018-08-12T05:15:06.569Z,45.00
2018-08-12T05:16:18.568Z,45.00
2018-08-12T05:17:04.568Z,50.63
2018-08-12T05:18:04.565Z,50.63
2018-08-12T05:19:06.534Z,45.00
2018-08-12T05:20:05.068Z,45.00
2018-08-12T05:21:06.506Z,50.63
2018-08-12T05:22:06.040Z,50.63
2018-08-12T05:23:05.568Z,45.00
2018-08-12T05:24:05.572Z,50.63
2018-08-12T05:25:19.567Z,50.63
2018-08-12T05:26:05.568Z,50.63
2018-08-12T05:27:27.069Z,45.00
2018-08-12T05:28:07.066Z,45.00
2018-08-12T05:29:29.066Z,45.00
2018-08-12T05:31:58.726Z,50.63
2018-08-12T05:32:37.731Z,50.63
2018-08-12T05:33:58.727Z,50.63
2018-08-12T05:34:38.233Z,50.63
2018-08-12T05:35:39.688Z,50.63
2018-08-12T05:36:37.535Z,50.63
2018-08-12T05:37:38.226Z,50.63
2018-08-12T05:38:38.226Z,50.63
2018-08-12T05:39:58.804Z,50.63
2018-08-12T05:40:40.181Z,56.25
2018-08-12T05:42:01.193Z,56.25
2018-08-12T05:42:39.692Z,56.25
2018-08-12T05:46:41.851Z,61.88
2018-08-12T05:47:41.858Z,61.88
2018-08-12T05:48:41.855Z,61.88
2018-08-12T05:49:41.454Z,67.50
2018-08-12T05:51:09.379Z,73.13
2018-08-12T05:51:42.359Z,73.13
2018-08-12T05:52:42.360Z,73.13
2018-08-12T05:53:41.955Z,67.50
2018-08-12T05:54:42.859Z,67.50
2018-08-12T05:55:42.860Z,61.88
2018-08-12T05:56:42.857Z,67.50
2018-08-12T05:57:46.356Z,73.13
2018-08-12T05:59:06.298Z,73.13
2018-08-12T05:59:46.290Z,73.13
2018-08-12T06:00:42.696Z,78.75
2018-08-12T06:02:05.355Z,84.38
2018-08-12T06:02:43.014Z,84.38
2018-08-12T06:03:49.857Z,84.38
2018-08-12T06:04:44.816Z,84.38
2018-08-12T06:05:43.858Z,84.38
2018-08-12T06:06:43.856Z,84.38
2018-08-12T06:07:44.365Z,84.38
2018-08-12T06:09:05.361Z,90.00
2018-08-12T06:09:44.356Z,90.00
2018-08-12T06:10:43.830Z,90.00
2018-08-12T06:11:46.859Z,90.00
2018-08-12T06:12:44.856Z,95.63
2018-08-12T06:13:44.470Z,95.63
2018-08-12T06:14:44.866Z,95.63
2018-08-12T06:15:45.357Z,101.25
2018-08-12T06:16:45.356Z,95.63
2018-08-12T06:17:45.357Z,95.63
2018-08-12T06:18:45.556Z,95.63
2018-08-12T06:19:51.869Z,95.63
2018-08-12T06:20:45.857Z,95.63
2018-08-12T06:22:00.852Z,101.25
2018-08-12T06:22:45.856Z,95.63
2018-08-12T06:23:46.363Z,95.63
2018-08-12T06:24:46.358Z,95.63
2018-08-12T06:25:45.780Z,90.00
2018-08-12T06:26:47.355Z,95.63
2018-08-12T06:27:45.949Z,95.63
2018-08-12T06:28:47.854Z,95.63
2018-08-12T06:29:48.802Z,95.63
2018-08-12T06:30:46.859Z,84.38
2018-08-12T06:31:48.789Z,90.00
2018-08-12T06:32:47.359Z,84.38
2018-08-12T06:33:47.365Z,84.38
2018-08-12T06:34:46.837Z,90.00
2018-08-12T06:37:19.103Z,90.00
2018-08-12T06:38:19.109Z,95.63
2018-08-12T06:39:19.109Z,95.63
2018-08-12T06:40:42.610Z,90.00
2018-08-12T06:41:19.610Z,84.38
2018-08-12T06:42:25.611Z,90.00
2018-08-12T06:43:19.613Z,95.63
2018-08-12T06:44:19.208Z,101.25
2018-08-12T06:45:41.110Z,101.25
2018-08-12T06:46:20.137Z,106.88
2018-08-12T06:47:20.116Z,106.88
2018-08-12T06:48:20.610Z,106.88
2018-08-12T06:49:20.610Z,112.50
2018-08-12T06:50:19.987Z,123.75
2018-08-12T06:51:20.610Z,129.38
2018-08-12T06:52:22.071Z,123.75
2018-08-12T06:53:44.110Z,123.75
2018-08-12T06:54:21.109Z,123.75
2018-08-12T06:55:42.110Z,123.75
2018-08-12T06:56:21.634Z,123.75
2018-08-12T06:57:22.569Z,129.38
2018-08-12T06:58:20.952Z,129.38
2018-08-12T06:59:21.609Z,140.63
2018-08-12T07:00:21.091Z,135.00
2018-08-12T07:01:42.170Z,135.00
2018-08-12T07:02:22.109Z,135.00
2018-08-12T07:03:22.111Z,129.38
2018-08-12T07:04:22.109Z,123.75
2018-08-12T07:05:22.113Z,123.75
2018-08-12T07:06:22.609Z,123.75
2018-08-12T07:07:21.838Z,123.75
2018-08-12T07:08:22.612Z,123.75
2018-08-12T07:09:22.609Z,129.38
2018-08-12T07:10:23.111Z,129.38
2018-08-12T07:11:24.113Z,118.13
2018-08-12T07:12:24.107Z,129.38
2018-08-12T07:13:23.115Z,129.38
2018-08-12T07:14:23.648Z,135.00
2018-08-12T07:15:23.541Z,135.00
2018-08-12T07:16:23.614Z,123.75
2018-08-12T07:17:23.609Z,129.38
2018-08-12T07:18:24.109Z,140.63
2018-08-12T07:19:24.109Z,146.25
2018-08-12T07:20:24.110Z,151.88
2018-08-12T07:21:24.108Z,180.00
2018-08-12T07:22:27.041Z,185.63
2018-08-12T07:23:24.608Z,174.38
2018-08-12T07:24:24.616Z,196.88
2018-08-12T07:25:24.607Z,202.50
2018-08-12T07:26:25.109Z,213.75
2018-08-12T07:27:25.114Z,225.00
2018-08-12T07:28:25.108Z,225.00
2018-08-12T07:29:25.109Z,236.25
2018-08-12T07:30:25.609Z,236.25
2018-08-12T07:31:26.617Z,230.63
2018-08-12T07:32:25.609Z,236.25
2018-08-12T07:33:25.139Z,236.25
2018-08-12T07:36:19.797Z,241.88
2018-08-12T07:37:18.364Z,230.63
2018-08-12T07:37:56.840Z,230.63
2018-08-12T07:39:20.326Z,230.63
2018-08-12T07:39:57.054Z,219.38
2018-08-12T07:40:57.881Z,208.13
2018-08-12T07:41:57.866Z,180.00
2018-08-12T07:42:57.869Z,185.63
2018-08-12T07:43:58.366Z,185.63
2018-08-12T07:44:57.604Z,191.25
2018-08-12T07:45:57.704Z,196.88
2018-08-12T07:46:58.364Z,185.63
2018-08-12T07:47:58.865Z,185.63
2018-08-12T07:48:58.866Z,185.63
2018-08-12T07:49:58.266Z,180.00
2018-08-12T07:50:58.366Z,174.38
2018-08-12T07:53:44.625Z,174.38
2018-08-12T07:54:30.633Z,174.38
2018-08-12T07:55:32.568Z,168.75
2018-08-12T07:56:51.203Z,163.13
2018-08-12T07:57:31.135Z,174.38
2018-08-12T07:58:53.131Z,180.00
2018-08-12T07:59:30.484Z,174.38
2018-08-12T08:00:52.134Z,168.75
2018-08-12T08:01:45.632Z,157.50
2018-08-12T08:02:31.633Z,157.50
2018-08-12T08:03:31.636Z,174.38
2018-08-12T08:04:31.634Z,185.63
2018-08-12T08:05:32.142Z,174.38
2018-08-12T08:06:32.133Z,180.00
2018-08-12T08:07:31.485Z,191.25
2018-08-12T08:08:32.133Z,196.88
2018-08-12T08:09:52.715Z,196.88
2018-08-12T08:10:32.633Z,202.50
2018-08-12T08:13:03.448Z,180.00
2018-08-12T08:14:04.188Z,191.25
2018-08-12T08:15:04.193Z,196.88
2018-08-12T08:16:31.691Z,191.25
2018-08-12T08:17:25.691Z,208.13
2018-08-12T08:18:27.623Z,208.13
2018-08-12T08:19:04.698Z,208.13
2018-08-12T08:20:05.191Z,202.50
2018-08-12T08:21:04.418Z,196.88
2018-08-12T08:22:11.191Z,196.88
2018-08-12T08:23:05.191Z,196.88
2018-08-12T08:24:04.793Z,202.50
2018-08-12T08:25:26.759Z,202.50
2018-08-12T08:26:05.691Z,202.50
2018-08-12T08:27:05.170Z,202.50
2018-08-12T08:28:06.195Z,208.13
2018-08-12T08:29:27.195Z,208.13
2018-08-12T08:30:06.191Z,208.13
2018-08-12T08:31:27.225Z,213.75
2018-08-12T08:32:26.777Z,213.75
2018-08-12T08:33:12.691Z,213.75
2018-08-12T08:34:27.691Z,208.13
2018-08-12T08:35:06.690Z,208.13
2018-08-12T08:37:38.440Z,202.50
2018-08-12T08:40:24.451Z,202.50
2018-08-12T08:41:30.786Z,202.50
2018-08-12T08:42:31.458Z,202.50
2018-08-12T08:43:11.894Z,202.50
2018-08-12T08:44:31.953Z,202.50
2018-08-12T08:45:37.959Z,213.75
2018-08-12T08:47:41.612Z,202.50
2018-08-12T08:48:42.356Z,208.13
2018-08-12T08:49:42.358Z,202.50
2018-08-12T08:50:42.915Z,208.13
2018-08-12T08:51:42.091Z,202.50
2018-08-12T08:52:42.858Z,208.13
2018-08-12T08:53:42.855Z,213.75
2018-08-12T08:54:43.355Z,202.50
2018-08-12T08:56:04.400Z,208.13
2018-08-12T08:56:43.369Z,208.13
2018-08-12T08:57:43.355Z,208.13
2018-08-12T08:58:43.856Z,208.13
2018-08-12T08:59:57.861Z,208.13
2018-08-12T09:00:43.856Z,208.13
2018-08-12T09:01:43.856Z,208.13
2018-08-12T09:02:43.459Z,208.13
2018-08-12T09:03:44.382Z,208.13
2018-08-12T09:04:46.356Z,208.13
2018-08-12T09:05:44.356Z,208.13
2018-08-12T09:06:44.356Z,208.13
2018-08-12T09:07:50.875Z,208.13
2018-08-12T09:08:44.396Z,208.13
2018-08-12T09:09:44.856Z,208.13
2018-08-12T09:10:44.856Z,208.13
2018-08-12T09:11:45.356Z,208.13
2018-08-12T09:12:45.355Z,213.75
2018-08-12T09:13:45.361Z,213.75
2018-08-12T09:14:45.357Z,213.75
2018-08-12T09:15:45.857Z,213.75
2018-08-12T09:16:45.860Z,213.75
2018-08-12T09:17:45.214Z,213.75
2018-08-12T09:18:45.857Z,213.75
2018-08-12T09:19:46.356Z,213.75
2018-08-12T09:20:46.357Z,219.38
2018-08-12T09:21:46.357Z,213.75
2018-08-12T09:22:46.352Z,213.75
2018-08-12T09:23:52.876Z,213.75
2018-08-12T09:24:46.856Z,213.75
2018-08-12T09:25:46.210Z,213.75
2018-08-12T09:26:46.857Z,213.75
2018-08-12T09:27:47.357Z,213.75
2018-08-12T09:28:47.357Z,213.75
2018-08-12T09:29:47.357Z,213.75
2018-08-12T09:30:47.858Z,219.38
2018-08-12T09:31:47.857Z,219.38
2018-08-12T09:34:40.293Z,219.38
2018-08-12T09:35:20.687Z,219.38
2018-08-12T09:36:19.260Z,219.38
2018-08-12T09:37:39.841Z,219.38
2018-08-12T09:38:19.755Z,219.38
2018-08-12T09:39:19.755Z,219.38
2018-08-12T09:40:19.755Z,219.38
2018-08-12T09:41:21.690Z,219.38
2018-08-12T09:42:40.472Z,225.00
2018-08-12T09:43:20.253Z,225.00
2018-08-12T09:44:20.253Z,225.00
2018-08-12T09:45:22.762Z,225.00
2018-08-12T09:46:41.757Z,225.00
2018-08-12T09:47:41.755Z,225.00
2018-08-12T09:48:20.236Z,225.00
2018-08-12T09:49:42.256Z,225.00
2018-08-12T09:50:42.187Z,230.63
2018-08-12T09:51:42.382Z,230.63
2018-08-12T09:52:42.265Z,230.63
2018-08-12T09:53:44.759Z,230.63
2018-08-12T09:54:21.764Z,230.63
2018-08-12T09:55:23.188Z,236.25
2018-08-12T09:56:21.231Z,236.25
2018-08-12T09:57:24.256Z,236.25
2018-08-12T09:58:37.254Z,236.25
2018-08-12T09:59:42.594Z,236.25
2018-08-12T10:00:22.410Z,241.88
2018-08-12T10:01:42.840Z,241.88
2018-08-12T10:02:22.757Z,241.88
2018-08-12T10:03:22.754Z,247.50
2018-08-12T10:04:23.688Z,253.13
2018-08-12T10:05:23.258Z,253.13
2018-08-12T10:06:23.257Z,258.75
2018-08-12T10:07:37.333Z,258.75
2018-08-12T10:08:23.257Z,258.75
2018-08-12T10:09:23.754Z,264.38
2018-08-12T10:10:23.755Z,264.38
2018-08-12T10:11:23.788Z,264.38
2018-08-12T10:12:44.764Z,264.38
2018-08-12T10:13:23.366Z,264.38
2018-08-12T10:14:25.216Z,264.38
2018-08-12T10:15:24.303Z,264.38
2018-08-12T10:16:24.259Z,270.00
2018-08-12T10:17:45.757Z,270.00
2018-08-12T10:18:24.758Z,275.63
2018-08-12T10:19:24.760Z,275.63
2018-08-12T10:20:24.762Z,270.00
2018-08-12T10:21:25.284Z,270.00
2018-08-12T10:22:25.255Z,275.63
2018-08-12T10:23:25.259Z,275.63
2018-08-12T10:24:25.262Z,270.00
2018-08-12T10:25:25.758Z,275.63
2018-08-12T10:26:25.759Z,275.63
2018-08-12T10:27:25.759Z,281.25
2018-08-12T10:28:25.759Z,281.25
2018-08-12T10:29:27.197Z,281.25
2018-08-12T10:30:27.690Z,286.88
2018-08-12T10:31:25.645Z,281.25
2018-08-12T10:32:26.265Z,281.25
2018-08-12T10:33:26.759Z,281.25
2018-08-12T10:34:27.691Z,286.88
2018-08-12T10:35:26.764Z,286.88
2018-08-12T10:36:26.759Z,292.50
2018-08-12T10:37:27.259Z,292.50
2018-08-12T10:38:27.281Z,292.50
2018-08-12T10:39:26.637Z,292.50
2018-08-12T10:40:27.259Z,292.50
2018-08-12T10:41:41.759Z,298.13
2018-08-12T10:42:27.759Z,292.50
2018-08-12T10:43:27.759Z,286.88
2018-08-12T10:44:27.811Z,286.88
2018-08-12T10:45:29.698Z,292.50
2018-08-12T10:46:28.259Z,292.50
2018-08-12T10:47:29.192Z,292.50
2018-08-12T10:48:27.611Z,292.50
2018-08-12T10:49:29.692Z,298.13
2018-08-12T10:50:29.700Z,292.50
2018-08-12T10:51:29.700Z,292.50
2018-08-12T10:52:28.766Z,292.50
2018-08-12T10:53:28.760Z,298.13
2018-08-12T10:54:28.372Z,303.75
2018-08-12T10:55:29.264Z,309.38
2018-08-12T10:56:29.268Z,315.00
2018-08-12T10:57:30.281Z,326.25
2018-08-12T10:58:43.761Z,331.88
2018-08-12T10:59:29.885Z,331.88
2018-08-12T11:00:29.761Z,337.50
2018-08-12T11:01:51.758Z,343.13
2018-08-12T11:04:22.519Z,371.25
2018-08-12T11:05:01.527Z,360.00
2018-08-12T11:06:01.524Z,376.88
2018-08-12T11:08:33.311Z,365.63
2018-08-12T11:09:32.674Z,376.88
2018-08-12T11:10:33.319Z,376.88
2018-08-12T11:13:05.089Z,388.13
2018-08-12T11:14:05.097Z,393.75
2018-08-12T11:15:05.097Z,393.75
2018-08-12T11:16:05.592Z,399.38
2018-08-12T11:17:05.600Z,399.38
2018-08-12T11:18:05.602Z,393.75
2018-08-12T11:19:05.596Z,388.13
2018-08-12T11:20:15.098Z,393.75
2018-08-12T11:21:20.097Z,393.75
2018-08-12T11:22:06.096Z,399.38
2018-08-12T11:23:06.096Z,410.63
2018-08-12T11:24:27.599Z,427.50
2018-08-12T11:25:27.596Z,461.25
2018-08-12T11:26:27.597Z,568.13
2018-08-12T11:27:06.595Z,781.88
2018-08-12T11:28:06.199Z,1046.25
2018-08-12T11:29:28.104Z,1333.13
2018-08-12T11:30:10.031Z,1760.63
2018-08-12T11:31:07.097Z,2401.88
2018-08-12T11:32:08.531Z,3009.38
2018-08-12T11:33:28.614Z,3555.00
2018-08-12T11:34:09.029Z,3808.13
2018-08-12T11:35:07.598Z,3735.00
2018-08-12T11:36:08.550Z,3639.38
2018-08-12T11:37:08.098Z,3448.13
2018-08-12T11:41:31.918Z,3616.88
2018-08-12T11:42:34.856Z,3594.38
2018-08-12T11:43:31.924Z,3780.00
2018-08-12T11:44:32.424Z,3847.50
2018-08-12T11:45:10.659Z,3583.13
2018-08-12T11:46:17.422Z,3493.13
2018-08-12T11:47:31.997Z,3386.25
2018-08-12T11:48:32.009Z,3555.00
2018-08-12T11:49:38.929Z,3555.00
2018-08-12T11:50:11.281Z,3600.00
2018-08-12T11:51:32.925Z,3740.63
2018-08-12T11:52:33.423Z,3864.38
2018-08-12T11:53:34.401Z,3870.00
2018-08-12T11:54:12.388Z,3875.63
2018-08-12T11:55:13.896Z,3622.50
2018-08-12T11:56:14.924Z,3611.25
2018-08-12T11:57:33.927Z,3526.88
2018-08-12T11:58:33.941Z,3555.00
2018-08-12T11:59:33.926Z,3600.00
2018-08-12T12:01:43.983Z,3538.13
2018-08-12T12:02:44.744Z,3616.88
2018-08-12T12:03:44.223Z,3661.88
2018-08-12T12:04:45.219Z,3853.13
2018-08-12T12:05:45.214Z,4066.88
2018-08-12T12:06:44.583Z,3746.25
2018-08-12T12:07:45.215Z,3577.50
2018-08-12T12:08:45.720Z,3526.88
2018-08-12T12:09:45.716Z,3515.63
2018-08-12T12:10:45.784Z,3301.88
2018-08-12T12:11:45.717Z,3386.25
2018-08-12T12:12:46.214Z,3487.50
2018-08-12T12:13:46.215Z,3639.38
2018-08-12T12:14:46.217Z,3330.00
2018-08-12T12:15:45.708Z,3504.38
2018-08-12T12:16:52.713Z,3645.00
2018-08-12T12:17:46.715Z,3465.00
2018-08-12T12:18:46.715Z,3588.75
2018-08-12T12:19:47.215Z,3847.50
2018-08-12T12:20:47.647Z,4005.00
2018-08-12T12:21:47.221Z,3729.38
2018-08-12T12:22:47.222Z,4016.25
2018-08-12T12:23:47.213Z,4055.63
2018-08-12T12:24:46.837Z,4314.38
2018-08-12T12:26:08.808Z,4359.38
2018-08-12T12:26:47.714Z,4078.13
2018-08-12T12:27:47.714Z,4033.13
2018-08-12T12:30:19.505Z,3825.00
2018-08-12T12:31:19.511Z,3780.00
2018-08-12T12:32:19.512Z,3633.75
2018-08-12T12:34:20.011Z,3971.25
2018-08-12T12:35:20.012Z,4033.13
2018-08-12T12:36:41.510Z,4224.38
2018-08-12T12:37:20.511Z,4455.00
2018-08-12T12:38:26.536Z,4545.00
2018-08-12T12:39:34.513Z,4522.50
2018-08-12T12:40:20.516Z,4370.63
2018-08-12T12:41:21.011Z,4235.63
2018-08-12T12:42:27.018Z,4291.88
2018-08-12T12:43:21.010Z,4252.50
2018-08-12T12:44:21.010Z,4196.25
2018-08-12T12:45:27.511Z,4269.38
2018-08-12T12:46:20.756Z,4291.88
2018-08-12T12:47:35.509Z,3667.50
2018-08-12T12:48:24.010Z,3105.00
2018-08-12T12:49:43.019Z,2941.88
2018-08-12T12:50:22.080Z,3853.13
2018-08-12T12:51:22.010Z,3785.63
2018-08-12T12:52:22.011Z,2868.75
2018-08-12T12:53:45.941Z,3796.88
2018-08-12T12:54:22.509Z,3549.38
2018-08-12T12:55:43.509Z,3324.38
2018-08-12T12:56:22.549Z,3262.50
2018-08-12T12:57:23.982Z,3476.25
2018-08-12T12:58:23.964Z,3555.00
2018-08-12T12:59:44.010Z,3335.63
2018-08-12T13:00:23.955Z,3211.88
2018-08-12T13:01:44.509Z,3127.50
2018-08-12T13:02:44.513Z,3318.75
2018-08-12T13:03:23.509Z,3999.38
2018-08-12T13:04:23.509Z,3881.25
2018-08-12T13:05:24.008Z,4055.63
2018-08-12T13:06:24.017Z,3712.50
2018-08-12T13:07:24.004Z,3718.13
2018-08-12T13:08:24.007Z,3633.75
2018-08-12T13:09:45.514Z,3673.13
2018-08-12T13:10:24.508Z,3723.75
2018-08-12T13:11:23.885Z,3892.50
2018-08-12T13:12:24.588Z,3723.75
2018-08-12T13:13:25.011Z,3453.75
2018-08-12T13:14:25.017Z,3240.00
2018-08-12T13:15:25.008Z,3313.13
2018-08-12T13:16:25.007Z,3251.25
2018-08-12T13:17:25.514Z,3228.75
2018-08-12T13:18:25.519Z,3549.38
2018-08-12T13:19:46.508Z,3718.13
2018-08-12T13:20:25.530Z,3566.25
2018-08-12T13:21:26.012Z,3628.13
2018-08-12T13:22:26.016Z,3690.00
2018-08-12T13:23:25.385Z,3155.63
2018-08-12T13:24:26.007Z,3909.38
2018-08-12T13:25:26.510Z,3616.88
2018-08-12T13:26:47.510Z,2981.25
2018-08-12T13:27:26.501Z,3746.25
2018-08-12T13:28:26.507Z,3785.63
2018-08-12T13:29:26.124Z,4128.75
2018-08-12T13:30:48.006Z,4342.50
2018-08-12T13:31:27.005Z,4297.50
2018-08-12T13:32:27.006Z,4218.75